Wahpeton, MN

3:00 PM CST on November 16, 2019 (GMT -0600)
Stern

Weather History for KBWP - September, 2019

Change the Weather History Date:

Thursday, September 12, 2019

  Actual Average (KFFM) Record (KFFM)
Temperature  
Mean Temperature 55 °F -  
Max Temperature 60 °F 72 °F 91 °F (1969)
Min Temperature 50 °F 49 °F 32 °F (1964)
Degree Days  
Heating Degree Days 10    
Growing Degree Days 5 (Base 50)    
Moisture  
Dew Point 51 °F    
Average Humidity 89    
Maximum Humidity 94    
Minimum Humidity 82    
Precipitation  
Precipitation 0.00 in - - ()
Sea Level Pressure  
Sea Level Pressure 29.90 in    
Wind  
Wind Speed 9 mph ()    
Max Wind Speed 16 mph    
Max Gust Speed 24 mph    
Visibility 6.9 miles    
Events      
Averages and records for this station are not official NWS values.
T = Trace of Precipitation, MM = Missing Value Source: Averaged Metar Reports

Daily Weather History Graph

Daily Weather History Graph

Search for Another Location

Airport or City:

Astronomy

Sep. 12, 2019 Rise Set
Actual Time 7:00 AM CDT 7:44 PM CDT
Civil Twilight 6:30 AM CDT 8:14 PM CDT
Nautical Twilight 5:54 AM CDT 8:50 PM CDT
Astronomical Twilight 5:16 AM CDT 9:27 PM CDT
Moon 7:36 PM CDT (9/12) 5:11 AM CDT (9/12)
Length of Visible Light 13h 44m
Length of Day
12h 43m
Waxing Gibbous, 98% of the Moon is Illuminated
Sep 12
Waxing Gibbous
Sep 13
Full
Sep 21
Last Quarter
Sep 28
New
Oct 5
First Quarter

Hourly Weather History & Observations

Time (CDT) Temp. Dew Point Humidity Pressure Visibility Wind Dir Wind Speed Gust Speed Precip Events Conditions
12:15 AM 55.4 °F 50.0 °F 82% 30.06 in 10.0 mi East 15.0 mph 23.0 mph N/A   Unknown
12:35 AM 55.4 °F 50.0 °F 82% 30.08 in 10.0 mi East 11.5 mph - N/A   Unknown
12:55 AM 55.4 °F 50.0 °F 82% 30.11 in 10.0 mi East 8.1 mph - N/A   Overcast
1:15 AM 55.4 °F 50.0 °F 82% 30.14 in 10.0 mi ESE 9.2 mph - N/A   Overcast
1:35 AM 53.6 °F 50.0 °F 88% 30.13 in 10.0 mi East 5.8 mph - N/A   Overcast
1:55 AM 53.6 °F 50.0 °F 88% 30.11 in 10.0 mi ENE 5.8 mph - N/A   Unknown
2:55 AM 51.8 °F 48.2 °F 88% 30.08 in 10.0 mi ENE 13.8 mph 19.6 mph N/A   Overcast
3:15 AM 51.8 °F 46.4 °F 82% 30.06 in 10.0 mi ENE 13.8 mph - N/A   Overcast
3:35 AM 50.0 °F 46.4 °F 87% 30.04 in 10.0 mi ENE 16.1 mph 21.9 mph N/A   Overcast
3:55 AM 50.0 °F 46.4 °F 87% 30.04 in 10.0 mi ENE 12.7 mph 24.2 mph N/A   Overcast
4:15 AM 50.0 °F 46.4 °F 87% 30.04 in 10.0 mi East 13.8 mph 20.7 mph N/A   Overcast
4:35 AM 50.0 °F 46.4 °F 87% 30.03 in 10.0 mi East 13.8 mph - N/A   Overcast
4:55 AM 50.0 °F 46.4 °F 87% 30.03 in 10.0 mi East 13.8 mph - N/A   Overcast
5:15 AM 50.0 °F 46.4 °F 87% 30.01 in 7.0 mi East 12.7 mph - N/A   Unknown
5:35 AM 50.0 °F 46.4 °F 87% 30.02 in 7.0 mi East 9.2 mph - N/A   Unknown
5:55 AM 50.0 °F 46.4 °F 87% 30.03 in 5.0 mi East 6.9 mph - N/A   Unknown
6:15 AM 50.0 °F 46.4 °F 87% 30.01 in 4.0 mi East 8.1 mph - N/A   Unknown
6:35 AM 50.0 °F 46.4 °F 87% 29.99 in 5.0 mi East 9.2 mph - N/A   Unknown
6:55 AM 50.0 °F 46.4 °F 87% 29.97 in 10.0 mi ENE 11.5 mph 19.6 mph N/A   Overcast
7:15 AM 50.0 °F 46.4 °F 87% 29.95 in 10.0 mi ENE 15.0 mph 19.6 mph N/A   Overcast
7:35 AM 50.0 °F 46.4 °F 87% 29.94 in 10.0 mi ENE 15.0 mph 23.0 mph N/A   Overcast
7:55 AM 51.8 °F 48.2 °F 88% 29.92 in 10.0 mi ENE 15.0 mph 20.7 mph N/A   Mostly Cloudy
8:15 AM 51.8 °F 48.2 °F 88% 29.92 in 10.0 mi ENE 11.5 mph 18.4 mph N/A   Mostly Cloudy
8:35 AM 51.8 °F 48.2 °F 88% 29.92 in 10.0 mi ENE 12.7 mph 17.3 mph N/A   Overcast
8:55 AM 51.8 °F 48.2 °F 88% 29.91 in 10.0 mi ENE 11.5 mph 23.0 mph N/A   Overcast
9:15 AM 51.8 °F 48.2 °F 88% 29.92 in 2.5 mi ENE 5.8 mph - N/A   Overcast
9:35 AM 51.8 °F 50.0 °F 94% 29.92 in 2.0 mi ENE 5.8 mph - N/A   Overcast
9:55 AM 51.8 °F 50.0 °F 94% 29.91 in 2.0 mi NE 6.9 mph - N/A   Overcast
10:15 AM 51.8 °F 50.0 °F 94% 29.90 in 2.0 mi NE 6.9 mph - N/A   Overcast
10:35 AM 51.8 °F 50.0 °F 94% 29.90 in 1.8 mi ENE 6.9 mph - N/A   Overcast
10:55 AM 53.6 °F 50.0 °F 88% 29.89 in 1.8 mi NE 9.2 mph - N/A   Overcast
11:15 AM 53.6 °F 51.8 °F 94% 29.88 in 1.5 mi ENE 10.4 mph - N/A   Overcast
11:35 AM 53.6 °F 51.8 °F 94% 29.88 in 1.5 mi ENE 9.2 mph - N/A   Overcast
11:55 AM 53.6 °F 51.8 °F 94% 29.88 in 1.8 mi ENE 8.1 mph - N/A   Overcast
12:15 PM 53.6 °F 51.8 °F 94% 29.88 in 1.2 mi ENE 9.2 mph - N/A   Overcast
12:35 PM 53.6 °F 51.8 °F 94% 29.87 in 1.2 mi ENE 8.1 mph - N/A   Overcast
12:55 PM 55.4 °F 53.6 °F 94% 29.86 in 1.5 mi ENE 5.8 mph - N/A   Overcast
1:15 PM 55.4 °F 53.6 °F 94% 29.85 in 1.8 mi ENE 5.8 mph - N/A   Overcast
1:35 PM 55.4 °F 53.6 °F 94% 29.84 in 1.2 mi ENE 5.8 mph - N/A   Overcast
1:55 PM 57.2 °F 53.6 °F 88% 29.84 in 1.5 mi ENE 5.8 mph - N/A   Overcast
2:15 PM 59.0 °F 55.4 °F 88% 29.83 in 4.0 mi NNE 3.5 mph - N/A   Unknown
2:35 PM 59.0 °F 55.4 °F 88% 29.82 in 3.0 mi East 4.6 mph - N/A   Unknown
2:55 PM 59.0 °F 55.4 °F 88% 29.82 in 1.8 mi Calm Calm - N/A   Unknown
3:15 PM 59.0 °F 55.4 °F 88% 29.81 in 2.0 mi Calm Calm - N/A   Unknown
3:35 PM 59.0 °F 55.4 °F 88% 29.79 in 7.0 mi NNW 3.5 mph - N/A   Unknown
3:55 PM 59.0 °F 55.4 °F 88% 29.79 in 2.5 mi NNW 3.5 mph - N/A   Unknown
4:15 PM 59.0 °F 55.4 °F 88% 29.78 in 2.5 mi NNW 6.9 mph - N/A   Unknown
4:35 PM 59.0 °F 55.4 °F 88% 29.78 in 1.2 mi NW 6.9 mph - N/A   Overcast
4:55 PM 59.0 °F 55.4 °F 88% 29.79 in 5.0 mi West 8.1 mph - N/A   Unknown
5:15 PM 59.0 °F 55.4 °F 88% 29.79 in 7.0 mi WNW 6.9 mph - N/A   Unknown
5:35 PM 60.8 °F 55.4 °F 82% 29.79 in 10.0 mi WNW 8.1 mph - N/A   Unknown
5:55 PM 59.0 °F 53.6 °F 82% 29.79 in 10.0 mi West 8.1 mph - N/A   Unknown
6:15 PM 59.0 °F 53.6 °F 82% 29.79 in 10.0 mi WNW 9.2 mph - N/A   Unknown
6:55 PM 59.0 °F 53.6 °F 82% 29.81 in 10.0 mi WNW 10.4 mph - N/A   Unknown
7:15 PM 59.0 °F 53.6 °F 82% 29.81 in 10.0 mi WNW 11.5 mph - N/A   Unknown
7:35 PM 57.2 °F 53.6 °F 88% 29.81 in 7.0 mi WNW 10.4 mph - N/A   Unknown
8:15 PM 55.4 °F 53.6 °F 94% 29.81 in 10.0 mi West 11.5 mph - N/A   Unknown
8:35 PM 55.4 °F 53.6 °F 94% 29.81 in 10.0 mi West 12.7 mph - N/A   Unknown
8:55 PM 55.4 °F 51.8 °F 88% 29.81 in 10.0 mi West 12.7 mph - N/A   Unknown
9:15 PM 55.4 °F 51.8 °F 88% 29.82 in 10.0 mi WNW 12.7 mph - N/A   Unknown
9:35 PM 55.4 °F 51.8 °F 88% 29.81 in 10.0 mi WNW 11.5 mph - N/A   Unknown
9:55 PM 55.4 °F 51.8 °F 88% 29.81 in 10.0 mi WNW 13.8 mph 17.3 mph N/A   Unknown
10:15 PM 53.6 °F 51.8 °F 94% 29.81 in 10.0 mi WNW 11.5 mph - N/A   Unknown
10:35 PM 53.6 °F 51.8 °F 94% 29.81 in 10.0 mi WNW 10.4 mph - N/A   Unknown
10:55 PM 53.6 °F 51.8 °F 94% 29.81 in 10.0 mi WNW 9.2 mph - N/A   Unknown
11:15 PM 53.6 °F 51.8 °F 94% 29.81 in 10.0 mi West 11.5 mph - N/A   Unknown
11:35 PM 53.6 °F 51.8 °F 94% 29.81 in 10.0 mi WNW 6.9 mph - N/A   Unknown
11:55 PM 53.6 °F 50.0 °F 88% 29.81 in 10.0 mi WNW 11.5 mph - N/A   Unknown